Grande Prairie Airport
CYQU : rendu visible

Aérodrome :











RETROUVEZ-NOUS SUR...

 
LOGIN :

S'inscrire | Disclaimer

   EN    FR    IT 

 









Légende :    VFR   VFR Marginal   IFR   IFR Intensif   IFR Très Intensif
Visi : 
Plafond : 
>= 8 km
>= 3000ft
5 à 8 km
1000 à 3000 ft
1500m à 5 km
500 à 1000 ft
800 à 1500m
200 à 500 ft
< 800m
< 200 ft
Symboles :   Orages  Brouillard  Fortes neiges  Fortes précipitations  Vent > 20 kt






- Altitude de l'aérodrome : 2195 ft
- Code IATA : YQU


CYQU - Grande Prairie

DERNIER METAR :
  • 251200Z 23005KT 25SM SCT100 OVC210 10/07 A2985 RMK AC3CS5 SLP119 DENSITY ALT 2300FT

METARs EXPIRÉS :
  • 251141Z 26006KT 25SM BKN070 OVC100 11/07 A2985 RMK AC6AC2 SLP119 DENSITY ALT 2300FT
  • 251100Z 26014KT 25SM -SHRA OVC070 12/06 A2985 RMK AC8 CVCTV CLD EMBD SLP118 DENSITY ALT 2500FT
  • 251000Z 20007KT 25SM OVC070 12/06 A2984 RMK AC8 SLP114 DENSITY ALT 2400FT

TAF TAF CYQU
Valide du 25 à 07h jusqu'au 25 à 19h UTC


250638Z 2507/2519 20008KT P6SM SCT090 BKN250
FM250900 24008KT P6SM SCT080 BKN120
TEMPO 2509/2517 BKN080
BECMG 2512/2514 25015KT
FM251700 25018G28KT P6SM SCT120 RMK NXT FCST BY 251300Z
FIR CZEG / Amérique du Nord



MET'MAP, la Météo Aéronautique d'un coup d'oeil ! - Copyright ORBIFLY Décembre 2007 - Disclaimer

ORBIFLY MET'MAP TEAM :

Programmation & Développement : Alexandra Zaïnal
Sur une idée originale de : Baudouin d'Aumeries
Assistance à la programmation : Marc-Olivier Méhu
Soutien technique & logistique : Manuel Goepfert

Contact : metmap@orbifly.com




SOURCES & CREDITS :

   NOAA       Earth
Advisory